Time;durP1;ratioP1;P1;durP2;ratioP2;P2;SDS_P1;SDS_P2;PMS_P1;PMS_P2;Temp;Humidity;BMP_temperature;BMP_pressure;BME280_temperature;BME280_humidity;BME280_pressure;Samples;Min_cycle;Max_cycle;Signal;HPM_P1;HPM_P2
2022/09/13 00:00:42;;;;;;;22.42;16.58;;;17.10;99.90;;;;;;5095230;27;20035;-56
2022/09/13 00:03:10;;;;;;;30.77;20.10;;;14.70;99.90;;;;;;5094295;27;20063;-57
2022/09/13 00:05:37;;;;;;;24.90;18.55;;;16.80;99.90;;;;;;5094531;28;20070;-57
2022/09/13 00:08:04;;;;;;;31.23;22.08;;;16.90;99.90;;;;;;5095513;27;20093;-56
2022/09/13 00:10:33;;;;;;;22.67;18.83;;;17.00;99.90;;;;;;5094577;27;20407;-56
2022/09/13 00:12:59;;;;;;;25.90;19.38;;;17.00;99.90;;;;;;5094750;27;20051;-56
2022/09/13 00:15:24;;;;;;;30.38;21.45;;;16.90;99.90;;;;;;5094319;28;20057;-57
2022/09/13 00:17:50;;;;;;;30.60;21.05;;;17.00;99.90;;;;;;5093927;27;20527;-57
2022/09/13 00:20:16;;;;;;;29.15;23.45;;;16.80;99.90;;;;;;5094287;28;20597;-56
2022/09/13 00:22:41;;;;;;;31.55;22.67;;;17.10;99.90;;;;;;5094218;28;20044;-56
2022/09/13 00:25:08;;;;;;;34.50;23.85;;;16.80;99.90;;;;;;5095271;27;20674;-57
2022/09/13 00:27:35;;;;;;;34.03;22.85;;;16.80;99.90;;;;;;5094759;27;20063;-56
2022/09/13 00:30:02;;;;;;;30.23;22.13;;;16.80;99.90;;;;;;5095899;27;20044;-56
2022/09/13 00:32:27;;;;;;;33.25;23.70;;;16.80;99.90;;;;;;5092609;28;20073;-56
2022/09/13 00:34:53;;;;;;;39.58;24.80;;;16.60;99.90;;;;;;5091997;27;20126;-56
2022/09/13 00:37:19;;;;;;;38.45;25.95;;;16.90;99.90;;;;;;5092646;27;20046;-56
2022/09/13 00:39:45;;;;;;;39.30;27.98;;;16.60;99.90;;;;;;5094654;28;20058;-56
2022/09/13 00:42:14;;;;;;;43.70;28.17;;;16.70;99.90;;;;;;5093132;27;20182;-56
2022/09/13 00:44:49;;;;;;;41.30;27.98;;;16.80;99.90;;;;;;5093177;27;20109;-56
2022/09/13 00:47:20;;;;;;;34.45;25.20;;;16.80;99.90;;;;;;5092197;27;20043;-56
2022/09/13 00:49:48;;;;;;;31.27;22.30;;;16.50;99.90;;;;;;5093631;27;20070;-56
2022/09/13 00:52:19;;;;;;;32.53;22.60;;;16.60;99.90;;;;;;5093000;27;20055;-56
2022/09/13 00:54:54;;;;;;;22.10;17.70;;;16.60;99.90;;;;;;5093489;28;20100;-56
2022/09/13 00:57:21;;;;;;;25.70;17.83;;;16.90;99.90;;;;;;5095457;27;20036;-56
2022/09/13 00:59:59;;;;;;;25.88;18.65;;;16.80;99.90;;;;;;5093221;27;20035;-55
2022/09/13 01:02:27;;;;;;;23.25;17.30;;;16.90;99.90;;;;;;5094448;28;20112;-55
2022/09/13 01:04:53;;;;;;;22.70;17.10;;;16.80;99.90;;;;;;5094285;27;20079;-55
2022/09/13 01:07:19;;;;;;;22.58;17.65;;;16.70;99.90;;;;;;5094601;27;20112;-56
2022/09/13 01:09:48;;;;;;;22.50;17.40;;;16.70;99.90;;;;;;5093789;27;20043;-56
2022/09/13 01:12:42;;;;;;;22.35;17.00;;;16.80;99.90;;;;;;5093411;28;20047;-56
2022/09/13 01:15:09;;;;;;;23.23;16.95;;;16.70;99.90;;;;;;5093371;27;20047;-56
2022/09/13 01:17:38;;;;;;;22.38;16.80;;;16.60;99.90;;;;;;5093420;27;20047;-56
2022/09/13 01:20:06;;;;;;;21.83;16.33;;;16.80;99.90;;;;;;5094430;28;20507;-56
2022/09/13 01:22:35;;;;;;;19.48;14.30;;;16.70;99.90;;;;;;5078026;28;20104;-56
2022/09/13 01:25:35;;;;;;;18.48;14.35;;;16.50;99.90;;;;;;5092957;28;20047;-56
2022/09/13 01:28:35;;;;;;;23.25;16.38;;;16.60;99.90;;;;;;5093033;27;20039;-57
2022/09/13 01:31:08;;;;;;;22.48;16.40;;;16.70;99.90;;;;;;5095175;27;20036;-55
2022/09/13 01:33:43;;;;;;;20.95;15.98;;;16.60;99.90;;;;;;5093187;28;20593;-56
2022/09/13 01:36:31;;;;;;;20.88;15.35;;;16.70;99.90;;;;;;5092608;28;20138;-56
2022/09/13 01:39:04;;;;;;;19.73;14.25;;;16.80;99.90;;;;;;5092568;27;20103;-55
2022/09/13 01:41:33;;;;;;;19.95;15.27;;;16.80;99.90;;;;;;5092697;28;20108;-56
2022/09/13 01:44:21;;;;;;;21.38;15.27;;;16.80;99.90;;;;;;5092707;27;20143;-57
2022/09/13 01:47:02;;;;;;;20.50;14.60;;;16.70;99.90;;;;;;5092473;28;20051;-56
2022/09/13 01:49:47;;;;;;;21.65;15.23;;;16.70;99.90;;;;;;5092950;27;20031;-56
2022/09/13 01:52:18;;;;;;;19.35;14.73;;;16.90;99.90;;;;;;5092135;28;20132;-57
2022/09/13 01:54:52;;;;;;;20.55;13.73;;;17.00;99.90;;;;;;5092535;27;20097;-56
2022/09/13 01:57:29;;;;;;;17.90;13.30;;;16.90;99.90;;;;;;5092706;27;20075;-56
2022/09/13 02:00:09;;;;;;;14.30;12.73;;;16.90;99.90;;;;;;5094284;27;20047;-56
2022/09/13 02:03:04;;;;;;;16.50;13.50;;;16.80;99.90;;;;;;5092298;28;20477;-56
2022/09/13 02:05:36;;;;;;;20.08;14.23;;;16.80;99.90;;;;;;5085169;28;20059;-56
2022/09/13 02:08:27;;;;;;;23.15;16.85;;;16.80;99.90;;;;;;5093062;28;20047;-56
2022/09/13 02:11:02;;;;;;;19.83;13.97;;;16.70;99.90;;;;;;5093135;28;20103;-56
2022/09/13 02:13:34;;;;;;;19.88;14.15;;;16.70;99.90;;;;;;5093573;28;20122;-55
2022/09/13 02:16:11;;;;;;;20.30;15.27;;;16.70;99.90;;;;;;5093068;28;20091;-56
2022/09/13 02:18:46;;;;;;;22.50;16.77;;;16.70;99.90;;;;;;5092714;28;20047;-56
2022/09/13 02:21:20;;;;;;;20.23;16.13;;;16.70;99.90;;;;;;5092282;28;20093;-58
2022/09/13 02:24:00;;;;;;;20.90;15.95;;;16.80;99.90;;;;;;5092155;28;20036;-56
2022/09/13 02:26:28;;;;;;;22.92;16.00;;;16.70;99.90;;;;;;5092396;28;20038;-55
2022/09/13 02:28:56;;;;;;;19.38;15.75;;;16.70;99.90;;;;;;5093651;28;20058;-57
2022/09/13 02:31:36;;;;;;;20.90;15.43;;;16.80;99.90;;;;;;5093829;28;20518;-56
2022/09/13 02:34:26;;;;;;;19.52;15.30;;;16.80;99.90;;;;;;5093022;28;20075;-56
2022/09/13 02:36:55;;;;;;;21.10;15.82;;;16.80;99.90;;;;;;5095130;27;20867;-56
2022/09/13 02:39:24;;;;;;;21.17;15.65;;;16.90;99.90;;;;;;5096443;27;20051;-56
2022/09/13 02:42:22;;;;;;;23.83;16.15;;;16.90;99.90;;;;;;5095999;27;20087;-56
2022/09/13 02:44:58;;;;;;;20.10;15.25;;;16.80;99.90;;;;;;5094052;28;20515;-56
2022/09/13 02:47:33;;;;;;;19.30;14.75;;;16.90;99.90;;;;;;5095849;27;20504;-56
2022/09/13 02:50:27;;;;;;;20.85;16.08;;;17.00;99.90;;;;;;5096676;28;20879;-56
2022/09/13 02:53:31;;;;;;;22.73;16.05;;;16.70;99.90;;;;;;5095918;27;20127;-56
2022/09/13 02:56:15;;;;;;;21.23;16.10;;;16.70;99.90;;;;;;5095626;27;20055;-56
2022/09/13 02:59:03;;;;;;;18.67;14.77;;;16.80;99.90;;;;;;5097344;27;20035;-56
2022/09/13 03:01:29;;;;;;;21.00;14.57;;;17.00;99.90;;;;;;5096375;27;20130;-56
2022/09/13 03:03:55;;;;;;;20.17;12.68;;;17.00;99.90;;;;;;5095287;27;20048;-56
2022/09/13 03:06:26;;;;;;;14.15;10.77;;;16.90;99.90;;;;;;5095804;27;20055;-56
2022/09/13 03:08:55;;;;;;;11.03;5.63;;;17.10;99.90;;;;;;5096164;28;20047;-56
2022/09/13 03:11:55;;;;;;;9.93;4.80;;;16.70;99.90;;;;;;5095378;27;20400;-56
2022/09/13 03:14:48;;;;;;;7.43;3.72;;;17.00;99.90;;;;;;5094956;27;20040;-56
2022/09/13 03:17:35;;;;;;;7.20;3.15;;;16.90;99.90;;;;;;5094836;27;20834;-56
2022/09/13 03:20:18;;;;;;;4.88;2.78;;;16.90;99.90;;;;;;5095617;27;20070;-56
2022/09/13 03:23:02;;;;;;;7.00;1.85;;;17.00;99.90;;;;;;5094916;28;20051;-55
2022/09/13 03:26:13;;;;;;;4.20;1.80;;;16.80;99.90;;;;;;5096407;28;20047;-56
2022/09/13 03:29:05;;;;;;;4.32;1.58;;;16.70;99.90;;;;;;5095723;28;20036;-56
2022/09/13 03:31:53;;;;;;;5.32;1.60;;;16.60;99.90;;;;;;5097035;27;20051;-56
2022/09/13 03:34:46;;;;;;;5.13;1.30;;;16.80;99.90;;;;;;5095999;27;20126;-55
2022/09/13 03:37:37;;;;;;;5.82;1.80;;;16.70;99.90;;;;;;5094056;28;20341;-56
2022/09/13 03:40:12;;;;;;;5.18;1.80;;;16.80;99.90;;;;;;5095929;27;20408;-56
2022/09/13 03:42:47;;;;;;;7.63;1.98;;;16.60;99.90;;;;;;5095244;27;20081;-56
2022/09/13 03:45:15;;;;;;;5.65;2.08;;;16.90;99.90;;;;;;5095369;27;20040;-56
2022/09/13 03:47:44;;;;;;;5.32;2.05;;;16.70;99.90;;;;;;5094146;27;20059;-57
2022/09/13 03:50:16;;;;;;;7.45;2.70;;;16.80;99.90;;;;;;5095283;27;20403;-56
2022/09/13 03:52:44;;;;;;;6.05;2.47;;;16.80;99.90;;;;;;5094377;27;20055;-56
2022/09/13 03:55:10;;;;;;;6.65;2.72;;;16.80;99.90;;;;;;5093846;27;20044;-56
2022/09/13 03:57:36;;;;;;;5.05;2.60;;;16.70;99.90;;;;;;5095837;27;20062;-56
2022/09/13 04:00:02;;;;;;;5.28;2.53;;;16.60;99.90;;;;;;5096752;27;20046;-57
2022/09/13 04:02:28;;;;;;;7.40;2.42;;;16.60;99.90;;;;;;5095594;27;20051;-56
2022/09/13 04:04:55;;;;;;;6.82;3.25;;;16.80;99.90;;;;;;5094891;28;20047;-56
2022/09/13 04:07:23;;;;;;;6.40;3.17;;;16.80;99.90;;;;;;5094861;27;21571;-56
2022/09/13 04:09:49;;;;;;;6.93;2.63;;;16.70;99.90;;;;;;5095690;27;20039;-56
2022/09/13 04:12:16;;;;;;;4.60;2.10;;;16.90;99.90;;;;;;5094433;27;20050;-57
2022/09/13 04:14:42;;;;;;;4.57;2.00;;;16.80;99.90;;;;;;5094309;28;20031;-56
2022/09/13 04:17:08;;;;;;;3.78;1.88;;;16.70;99.90;;;;;;5092701;27;20559;-56
2022/09/13 04:19:34;;;;;;;5.15;1.60;;;16.80;99.90;;;;;;5094456;27;20043;-56
2022/09/13 04:22:00;;;;;;;5.32;1.73;;;16.70;99.90;;;;;;5093254;27;20074;-56
2022/09/13 04:24:28;;;;;;;4.95;1.50;;;16.80;99.90;;;;;;5093004;27;20063;-57
2022/09/13 04:26:55;;;;;;;5.03;1.35;;;16.50;99.90;;;;;;5091855;27;20071;-57
2022/09/13 04:29:22;;;;;;;5.63;1.50;;;16.80;99.90;;;;;;5094627;27;20039;-56
2022/09/13 04:31:50;;;;;;;6.93;1.20;;;16.70;99.90;;;;;;5094769;27;20035;-57
2022/09/13 04:34:17;;;;;;;8.38;1.55;;;16.70;99.90;;;;;;5093471;27;20408;-57
2022/09/13 04:36:44;;;;;;;7.80;1.30;;;16.70;99.90;;;;;;5093893;28;20051;-57
2022/09/13 04:39:12;;;;;;;6.03;1.10;;;16.50;99.90;;;;;;5094529;27;20051;-57
2022/09/13 04:41:43;;;;;;;5.72;1.85;;;16.60;99.90;;;;;;5094518;28;20062;-57
2022/09/13 04:44:09;;;;;;;3.63;1.60;;;16.60;99.90;;;;;;5094395;27;20047;-58
2022/09/13 04:46:35;;;;;;;4.82;1.60;;;16.60;99.90;;;;;;5095076;28;20216;-56
2022/09/13 04:49:01;;;;;;;9.35;1.80;;;16.70;99.90;;;;;;5094559;27;20108;-56
2022/09/13 04:51:26;;;;;;;6.40;1.80;;;16.70;99.90;;;;;;5093655;27;20039;-57
2022/09/13 04:53:54;;;;;;;5.90;2.28;;;16.60;99.90;;;;;;5094917;27;20074;-57
2022/09/13 04:56:21;;;;;;;6.13;2.50;;;16.60;99.90;;;;;;5095401;28;20092;-57
2022/09/13 04:58:49;;;;;;;6.80;2.30;;;16.60;99.90;;;;;;5094243;27;20126;-57
2022/09/13 05:01:15;;;;;;;9.85;2.50;;;16.40;99.90;;;;;;5095382;27;20046;-57
2022/09/13 05:03:41;;;;;;;7.75;2.20;;;16.40;99.90;;;;;;5092030;28;20108;-57
2022/09/13 05:06:09;;;;;;;8.55;1.85;;;16.50;99.90;;;;;;5093839;28;20043;-57
2022/09/13 05:08:36;;;;;;;8.68;1.83;;;16.60;99.90;;;;;;5080182;28;20713;-56
2022/09/13 05:11:03;;;;;;;6.82;1.60;;;16.60;99.90;;;;;;5092584;27;20040;-57
2022/09/13 05:13:28;;;;;;;5.38;1.60;;;16.40;99.90;;;;;;5091856;28;20686;-57
2022/09/13 05:15:59;;;;;;;7.90;1.77;;;16.60;99.90;;;;;;5093983;28;20039;-56
2022/09/13 05:18:25;;;;;;;6.65;1.67;;;16.60;99.90;;;;;;5093942;27;20044;-57
2022/09/13 05:20:56;;;;;;;7.20;2.03;;;16.60;99.90;;;;;;5093502;27;20592;-57
2022/09/13 05:23:22;;;;;;;5.22;1.73;;;16.50;99.90;;;;;;5092876;27;20031;-57
2022/09/13 05:25:56;;;;;;;6.07;1.85;;;16.60;99.90;;;;;;5092592;27;20155;-56
2022/09/13 05:28:23;;;;;;;4.00;1.55;;;16.60;99.90;;;;;;5093209;27;20055;-56
2022/09/13 05:30:59;;;;;;;6.28;1.60;;;16.60;99.90;;;;;;5093850;28;20050;-57
2022/09/13 05:33:27;;;;;;;8.93;1.80;;;16.60;99.90;;;;;;5093496;28;20070;-56
2022/09/13 05:35:53;;;;;;;6.85;1.73;;;16.50;99.90;;;;;;5092329;27;20039;-56
2022/09/13 05:38:20;;;;;;;5.78;1.52;;;16.40;99.90;;;;;;5092076;27;20051;-56
2022/09/13 05:40:46;;;;;;;7.55;1.63;;;16.60;99.90;;;;;;5094227;27;20047;-56
2022/09/13 05:43:12;;;;;;;5.95;1.52;;;16.60;99.90;;;;;;5093077;28;20040;-55
2022/09/13 05:45:38;;;;;;;5.90;1.52;;;16.60;99.90;;;;;;5093724;28;20590;-56
2022/09/13 05:48:04;;;;;;;5.63;1.90;;;16.60;99.90;;;;;;5092689;28;20115;-56
2022/09/13 05:50:30;;;;;;;8.13;1.83;;;16.60;99.90;;;;;;5092417;28;20516;-56
2022/09/13 05:52:56;;;;;;;5.20;1.58;;;16.60;99.90;;;;;;5091672;28;20063;-56
2022/09/13 05:55:22;;;;;;;9.05;2.20;;;16.60;99.90;;;;;;5093115;28;20040;-56
2022/09/13 05:57:49;;;;;;;6.90;1.88;;;16.60;99.90;;;;;;5092643;28;20102;-56
2022/09/13 06:00:15;;;;;;;5.45;1.85;;;16.70;99.90;;;;;;5093404;28;20078;-56
2022/09/13 06:02:41;;;;;;;6.22;2.45;;;16.60;99.90;;;;;;5094663;27;20039;-57
2022/09/13 06:05:09;;;;;;;8.07;2.03;;;16.70;99.90;;;;;;5092159;27;20050;-56
2022/09/13 06:07:38;;;;;;;8.30;2.35;;;16.60;99.90;;;;;;5092867;27;20075;-56
2022/09/13 06:10:04;;;;;;;8.73;1.77;;;16.60;99.90;;;;;;5093273;28;20040;-57
2022/09/13 06:12:29;;;;;;;6.47;2.10;;;16.70;99.90;;;;;;5093349;28;20104;-56
2022/09/13 06:14:55;;;;;;;10.32;2.45;;;16.80;99.90;;;;;;5093937;28;20039;-57
2022/09/13 06:17:21;;;;;;;10.45;2.35;;;16.90;99.90;;;;;;5091262;28;20789;-57
2022/09/13 06:19:46;;;;;;;8.60;2.25;;;16.80;99.90;;;;;;5092786;28;20050;-57
2022/09/13 06:22:12;;;;;;;7.18;1.67;;;16.90;99.90;;;;;;5093531;28;20119;-57
2022/09/13 06:24:38;;;;;;;12.07;2.03;;;16.80;99.90;;;;;;5092505;28;20049;-57
2022/09/13 06:27:04;;;;;;;8.95;2.35;;;16.80;99.90;;;;;;5092834;28;20400;-56
2022/09/13 06:29:30;;;;;;;7.00;1.90;;;17.00;99.90;;;;;;5093191;28;20043;-57
2022/09/13 06:31:56;;;;;;;8.15;2.47;;;17.00;99.90;;;;;;5092238;28;20590;-57
2022/09/13 06:34:22;;;;;;;7.72;2.15;;;17.90;99.90;;;;;;5091194;28;20504;-58
2022/09/13 06:36:48;;;;;;;4.90;1.40;;;18.20;99.90;;;;;;5092740;28;20100;-57
2022/09/13 06:39:14;;;;;;;11.20;1.50;;;18.50;99.90;;;;;;5093203;28;20039;-56
2022/09/13 06:41:40;;;;;;;12.65;1.70;;;18.50;99.90;;;;;;5091381;28;20042;-56
2022/09/13 06:44:05;;;;;;;6.88;1.17;;;18.30;99.90;;;;;;5092134;28;20051;-56
2022/09/13 06:46:33;;;;;;;9.02;1.45;;;18.10;99.90;;;;;;5092298;28;20461;-57
2022/09/13 06:49:02;;;;;;;9.00;1.42;;;18.10;99.90;;;;;;5093186;28;20055;-56
2022/09/13 06:51:31;;;;;;;11.65;1.45;;;17.90;99.90;;;;;;5092727;28;20032;-57
2022/09/13 06:53:57;;;;;;;9.75;1.25;;;17.80;99.90;;;;;;5092253;28;20054;-56
2022/09/13 06:56:26;;;;;;;7.60;1.20;;;18.00;99.90;;;;;;5091780;28;20092;-57
2022/09/13 06:58:55;;;;;;;7.82;0.98;;;17.90;99.90;;;;;;5092615;28;20495;-57
2022/09/13 07:01:24;;;;;;;9.98;1.73;;;18.20;99.90;;;;;;5093800;28;20123;-57
2022/09/13 07:04:01;;;;;;;6.53;1.13;;;18.00;99.90;;;;;;5092011;28;20048;-57
2022/09/13 07:06:30;;;;;;;8.18;1.80;;;18.00;99.90;;;;;;5092707;28;20044;-57
2022/09/13 07:08:57;;;;;;;5.78;1.20;;;18.10;99.90;;;;;;5092448;28;20044;-57
2022/09/13 07:11:26;;;;;;;6.53;1.10;;;18.10;99.90;;;;;;5092062;28;20028;-56
2022/09/13 07:13:53;;;;;;;5.55;0.95;;;18.10;99.90;;;;;;5089971;28;20044;-57
2022/09/13 07:16:21;;;;;;;6.03;1.17;;;17.90;99.90;;;;;;5092080;28;20039;-59
2022/09/13 07:18:55;;;;;;;7.97;1.10;;;17.80;99.90;;;;;;5093061;28;20044;-56
2022/09/13 07:21:22;;;;;;;8.70;1.17;;;17.90;99.90;;;;;;5092832;28;20043;-56
2022/09/13 07:23:49;;;;;;;7.80;1.77;;;18.00;99.90;;;;;;5096578;27;20859;-57
2022/09/13 07:26:15;;;;;;;5.05;0.88;;;18.20;99.90;;;;;;5097467;27;20118;-57
2022/09/13 07:28:43;;;;;;;5.50;1.23;;;18.80;99.90;;;;;;5096833;27;20126;-57
2022/09/13 07:31:15;;;;;;;6.03;1.08;;;19.10;99.90;;;;;;5096616;27;20138;-57
2022/09/13 07:33:42;;;;;;;5.93;1.00;;;19.30;99.90;;;;;;5096196;28;20036;-56
2022/09/13 07:36:10;;;;;;;5.95;1.05;;;19.60;99.90;;;;;;5096036;27;20046;-57
2022/09/13 07:38:40;;;;;;;6.38;0.93;;;19.90;99.90;;;;;;5095991;27;20085;-57
2022/09/13 07:41:10;;;;;;;5.22;0.65;;;19.90;99.90;;;;;;5094252;27;20439;-57
2022/09/13 07:43:36;;;;;;;4.93;0.98;;;20.20;99.90;;;;;;5095951;27;20035;-57
2022/09/13 07:46:03;;;;;;;4.82;0.95;;;20.10;99.90;;;;;;5097193;27;20042;-57
2022/09/13 07:48:31;;;;;;;7.70;1.33;;;20.10;99.90;;;;;;5095737;27;20044;-57
2022/09/13 07:51:08;;;;;;;5.68;1.08;;;20.00;99.90;;;;;;5095501;28;20121;-57
2022/09/13 07:53:35;;;;;;;5.78;0.70;;;20.20;99.90;;;;;;5095985;28;20063;-57
2022/09/13 07:56:05;;;;;;;6.82;1.08;;;20.30;99.90;;;;;;5094658;27;20055;-56
2022/09/13 07:58:32;;;;;;;4.05;1.00;;;20.00;99.90;;;;;;5095152;27;20126;-57
2022/09/13 08:01:11;;;;;;;6.53;0.80;;;20.10;99.90;;;;;;5093970;27;20040;-57
2022/09/13 08:03:38;;;;;;;5.15;0.85;;;20.00;99.90;;;;;;5095770;27;20043;-57
2022/09/13 08:06:05;;;;;;;6.75;1.10;;;19.90;99.90;;;;;;5095019;28;20070;-58
2022/09/13 08:08:32;;;;;;;7.53;0.85;;;20.00;99.90;;;;;;5094850;27;20130;-57
2022/09/13 08:10:58;;;;;;;5.80;0.80;;;20.00;99.90;;;;;;5094769;27;20612;-57
2022/09/13 08:13:24;;;;;;;6.53;0.93;;;20.10;99.90;;;;;;5095827;27;20040;-56
2022/09/13 08:15:50;;;;;;;8.55;0.73;;;20.10;99.90;;;;;;5094102;28;20079;-57
2022/09/13 08:18:17;;;;;;;7.10;1.25;;;20.20;99.90;;;;;;5093641;27;20131;-58
2022/09/13 08:20:43;;;;;;;6.30;0.88;;;19.90;99.90;;;;;;5095411;27;20059;-58
2022/09/13 08:23:11;;;;;;;6.28;1.05;;;19.70;99.90;;;;;;5094783;27;20031;-58
2022/09/13 08:25:37;;;;;;;7.15;1.00;;;19.60;99.90;;;;;;5095948;27;20676;-58
2022/09/13 08:28:14;;;;;;;8.20;0.95;;;19.50;99.90;;;;;;5094895;28;20036;-58
2022/09/13 08:30:41;;;;;;;8.75;1.30;;;19.60;99.90;;;;;;5094278;27;20048;-58
2022/09/13 08:33:07;;;;;;;5.78;0.90;;;19.50;99.90;;;;;;5094723;27;20826;-58
2022/09/13 08:35:33;;;;;;;4.35;0.73;;;19.60;99.90;;;;;;5094967;27;20094;-58
2022/09/13 08:37:59;;;;;;;8.05;1.05;;;19.60;99.90;;;;;;5094269;27;20255;-58
2022/09/13 08:40:29;;;;;;;9.82;1.17;;;20.50;99.90;;;;;;5095510;27;20044;-57
2022/09/13 08:43:14;;;;;;;5.93;1.23;;;19.30;99.90;;;;;;5095061;27;20035;-58
2022/09/13 08:45:40;;;;;;;8.95;1.40;;;19.40;99.90;;;;;;5094426;27;20044;-59
2022/09/13 08:48:15;;;;;;;7.07;1.20;;;19.40;99.90;;;;;;5095679;28;20043;-58
2022/09/13 08:50:43;;;;;;;8.27;1.25;;;19.20;99.90;;;;;;5095183;28;20348;-58
2022/09/13 08:53:26;;;;;;;5.00;1.15;;;19.30;99.90;;;;;;5095010;27;20481;-58
2022/09/13 08:56:12;;;;;;;8.93;1.50;;;19.30;99.90;;;;;;5093627;27;20301;-58
2022/09/13 08:59:17;;;;;;;5.55;1.00;;;19.40;99.90;;;;;;5093884;27;20074;-59
2022/09/13 09:01:50;;;;;;;8.57;1.10;;;18.90;99.90;;;;;;5095217;28;20174;-58
2022/09/13 09:04:25;;;;;;;6.63;1.13;;;18.90;99.90;;;;;;5094203;27;20047;-58
2022/09/13 09:07:08;;;;;;;4.93;1.02;;;18.80;99.90;;;;;;5095348;27;20104;-57
2022/09/13 09:10:02;;;;;;;9.50;1.30;;;18.90;99.90;;;;;;5093487;27;20043;-57
2022/09/13 09:12:42;;;;;;;3.72;0.82;;;18.80;99.90;;;;;;5077851;28;20694;-58
2022/09/13 09:15:19;;;;;;;6.28;1.45;;;19.30;99.90;;;;;;5094310;27;20046;-58
2022/09/13 09:18:21;;;;;;;5.32;0.90;;;19.40;99.90;;;;;;5094494;28;20074;-58
2022/09/13 09:20:50;;;;;;;4.28;0.75;;;19.20;99.90;;;;;;5069678;27;20056;-57
2022/09/13 09:23:44;;;;;;;7.53;1.23;;;19.30;99.90;;;;;;5093561;28;20047;-57
2022/09/13 09:26:19;;;;;;;7.63;0.98;;;19.10;99.90;;;;;;5082576;27;20044;-58
2022/09/13 09:29:28;;;;;;;6.07;1.02;;;19.50;99.90;;;;;;5094324;28;20040;-58
2022/09/13 09:32:40;;;;;;;6.35;1.17;;;19.80;99.90;;;;;;5089953;28;20078;-58
2022/09/13 09:35:23;;;;;;;9.70;1.13;;;20.30;99.90;;;;;;5090534;27;20043;-58
2022/09/13 09:38:26;;;;;;;5.43;0.80;;;20.20;99.90;;;;;;5094122;28;20036;-57
2022/09/13 09:40:52;;;;;;;4.78;0.80;;;20.00;99.90;;;;;;5093205;28;20404;-58
2022/09/13 09:43:27;;;;;;;7.00;1.02;;;19.90;99.90;;;;;;5093069;27;20065;-57
2022/09/13 09:45:55;;;;;;;5.68;0.80;;;19.70;99.90;;;;;;5091561;27;20043;-57
2022/09/13 09:48:36;;;;;;;6.35;0.90;;;19.90;99.90;;;;;;5093100;28;20071;-57
2022/09/13 09:51:04;;;;;;;5.25;1.40;;;20.10;99.90;;;;;;5094292;27;20039;-57
2022/09/13 09:53:46;;;;;;;7.38;0.90;;;20.30;99.90;;;;;;5094176;27;20154;-58
2022/09/13 09:56:22;;;;;;;4.57;0.98;;;20.40;99.90;;;;;;5094328;27;20104;-57
2022/09/13 09:58:49;;;;;;;5.70;0.82;;;20.60;99.90;;;;;;5094492;28;20039;-57
2022/09/13 10:01:21;;;;;;;5.85;0.75;;;20.60;99.90;;;;;;5094076;28;20049;-57
2022/09/13 10:04:07;;;;;;;;;;;20.70;99.90;;;;;;5094675;28;20196;-57
2022/09/13 10:06:34;;;;;;;6.40;1.10;;;20.50;99.90;;;;;;5094127;28;19923;-57
2022/09/13 10:09:01;;;;;;;9.20;1.17;;;20.30;99.90;;;;;;5093731;28;20129;-57
2022/09/13 10:11:41;;;;;;;6.95;0.88;;;20.00;99.90;;;;;;5094723;28;20043;-57
2022/09/13 10:14:28;;;;;;;8.85;1.40;;;19.90;99.90;;;;;;5093628;28;20047;-58
2022/09/13 10:17:04;;;;;;;3.97;0.65;;;20.00;99.90;;;;;;5092923;28;20051;-58
2022/09/13 10:19:31;;;;;;;6.63;1.02;;;19.80;99.90;;;;;;5092859;28;20075;-57
2022/09/13 10:22:09;;;;;;;4.35;0.80;;;19.60;99.90;;;;;;5092980;28;20047;-57
2022/09/13 10:24:35;;;;;;;5.28;0.90;;;19.70;99.90;;;;;;5093611;27;20043;-58
2022/09/13 10:27:03;;;;;;;3.40;0.65;;;19.80;99.90;;;;;;5092315;28;20043;-58
2022/09/13 10:29:30;;;;;;;5.13;0.85;;;20.00;99.90;;;;;;5092307;28;20407;-58
2022/09/13 10:31:57;;;;;;;5.97;0.95;;;20.40;99.90;;;;;;5092543;28;21625;-57
2022/09/13 10:34:28;;;;;;;9.77;1.25;;;20.50;99.90;;;;;;5093286;28;20134;-58
2022/09/13 10:37:03;;;;;;;9.30;1.10;;;21.00;99.90;;;;;;5093875;28;21354;-58
2022/09/13 10:39:33;;;;;;;4.28;1.00;;;21.00;99.90;;;;;;5092899;28;20044;-57
2022/09/13 10:42:03;;;;;;;5.47;0.68;;;20.90;99.90;;;;;;5091779;28;24044;-57
2022/09/13 10:44:54;;;;;;;8.85;1.27;;;20.70;99.90;;;;;;5092362;28;20086;-58
2022/09/13 10:47:34;;;;;;;3.75;0.65;;;20.80;99.90;;;;;;5084606;28;20059;-58
2022/09/13 10:50:22;;;;;;;5.25;0.95;;;20.80;99.90;;;;;;5091342;28;20040;-58
2022/09/13 10:52:51;;;;;;;5.90;1.00;;;21.20;99.90;;;;;;5091040;28;20052;-58
2022/09/13 10:55:20;;;;;;;4.28;0.70;;;21.30;99.90;;;;;;5090992;28;20083;-58
2022/09/13 10:57:46;;;;;;;6.32;0.75;;;21.60;99.90;;;;;;5094377;27;20039;-58
2022/09/13 11:00:17;;;;;;;6.20;0.88;;;22.20;99.90;;;;;;5096586;28;20100;-58
2022/09/13 11:02:58;;;;;;;3.95;0.90;;;22.20;99.90;;;;;;5096315;27;20069;-60
2022/09/13 11:05:40;;;;;;;4.93;0.95;;;21.90;99.90;;;;;;5095332;27;20043;-57
2022/09/13 11:08:35;;;;;;;6.88;1.20;;;21.50;99.90;;;;;;5096386;27;21378;-58
2022/09/13 11:11:15;;;;;;;6.40;0.90;;;21.30;99.90;;;;;;5087685;27;20050;-58
2022/09/13 11:13:51;;;;;;;4.47;1.10;;;21.60;99.90;;;;;;5095982;28;20282;-57
2022/09/13 11:16:19;;;;;;;7.40;1.00;;;21.60;99.90;;;;;;5096716;27;20109;-58
2022/09/13 11:19:03;;;;;;;6.65;1.00;;;21.20;99.90;;;;;;5095210;28;20044;-58
2022/09/13 11:21:35;;;;;;;5.03;0.80;;;21.00;99.90;;;;;;5094266;27;20113;-57
2022/09/13 11:24:23;;;;;;;5.90;0.93;;;21.20;99.90;;;;;;5094966;27;20516;-57
2022/09/13 11:27:00;;;;;;;3.65;0.80;;;21.30;99.90;;;;;;5094975;27;20512;-57
2022/09/13 11:30:01;;;;;;;8.05;0.98;;;21.00;99.90;;;;;;5096601;27;20155;-57
2022/09/13 11:32:56;;;;;;;5.10;0.95;;;21.30;99.90;;;;;;5076245;27;20063;-58
2022/09/13 11:35:41;;;;;;;3.85;0.70;;;21.50;99.90;;;;;;5096273;27;20036;-58
2022/09/13 11:38:33;;;;;;;5.20;0.88;;;21.80;99.90;;;;;;5095140;27;20126;-57
2022/09/13 11:41:27;;;;;;;10.27;0.90;;;21.50;99.90;;;;;;5094747;27;20184;-58
2022/09/13 11:44:25;;;;;;;4.57;1.08;;;21.20;99.90;;;;;;5094054;27;20062;-56
2022/09/13 11:47:12;;;;;;;5.65;1.45;;;21.20;99.90;;;;;;5094431;27;20051;-57
2022/09/13 11:50:20;;;;;;;7.85;1.00;;;23.00;99.90;;;;;;5094294;27;20035;-57
2022/09/13 11:53:00;;;;;;;7.28;1.55;;;21.50;99.90;;;;;;5094900;27;20051;-57
2022/09/13 11:55:44;;;;;;;13.02;1.40;;;21.20;99.90;;;;;;5096047;27;20070;-57
2022/09/13 11:58:44;;;;;;;9.32;1.63;;;21.00;99.90;;;;;;5094398;28;20039;-57
2022/09/13 12:01:16;;;;;;;7.68;1.27;;;21.10;99.90;;;;;;5093749;27;20039;-57
2022/09/13 12:03:45;;;;;;;9.00;1.27;;;21.20;99.90;;;;;;5093614;27;20096;-57
2022/09/13 12:06:35;;;;;;;9.82;1.25;;;21.30;99.90;;;;;;5093317;27;20267;-57
2022/09/13 12:09:16;;;;;;;7.78;1.40;;;21.60;99.90;;;;;;5091451;27;20054;-58
2022/09/13 12:12:12;;;;;;;8.50;1.37;;;21.60;99.90;;;;;;5094260;27;20087;-57
2022/09/13 12:14:59;;;;;;;4.57;0.82;;;21.70;99.90;;;;;;5072273;27;20162;-57
2022/09/13 12:17:47;;;;;;;5.28;1.10;;;21.70;99.90;;;;;;5094678;27;20356;-56
2022/09/13 12:20:35;;;;;;;9.73;1.17;;;21.40;99.90;;;;;;5093669;27;20081;-56
2022/09/13 12:23:07;;;;;;;6.82;1.00;;;20.80;99.90;;;;;;5094297;27;20399;-57
2022/09/13 12:25:54;;;;;;;8.90;1.33;;;20.70;99.90;;;;;;5094470;27;20075;-57
2022/09/13 12:28:45;;;;;;;3.80;0.85;;;20.70;99.90;;;;;;5094157;27;20044;-56
2022/09/13 12:31:18;;;;;;;6.97;1.10;;;20.90;99.90;;;;;;5093857;27;20053;-57
2022/09/13 12:33:45;;;;;;;8.90;1.30;;;20.90;99.90;;;;;;5094236;27;20047;-57
2022/09/13 12:36:32;;;;;;;6.68;0.98;;;20.80;99.90;;;;;;5095374;27;20169;-56
2022/09/13 12:38:58;;;;;;;7.53;1.25;;;20.90;99.90;;;;;;5095255;27;20040;-57
2022/09/13 12:41:42;;;;;;;7.05;1.13;;;21.10;99.90;;;;;;5095433;27;20143;-57
2022/09/13 12:44:21;;;;;;;8.45;1.85;;;21.20;99.90;;;;;;5094962;27;20508;-56
2022/09/13 12:47:10;;;;;;;5.50;1.10;;;21.30;99.90;;;;;;5093784;27;20093;-57
2022/09/13 12:49:48;;;;;;;10.00;1.30;;;21.10;99.90;;;;;;5093784;28;20550;-56
2022/09/13 12:52:51;;;;;;;8.27;1.20;;;21.00;99.90;;;;;;5093966;27;20043;-57
2022/09/13 12:55:51;;;;;;;7.57;1.20;;;21.00;99.90;;;;;;5094145;27;20054;-56
2022/09/13 12:58:42;;;;;;;7.78;1.05;;;21.10;99.90;;;;;;5094621;28;20051;-57
2022/09/13 13:01:16;;;;;;;8.25;1.08;;;21.10;99.90;;;;;;5095841;27;20035;-57
2022/09/13 13:04:00;;;;;;;9.50;1.40;;;21.20;99.90;;;;;;5094323;28;20082;-56
2022/09/13 13:06:46;;;;;;;9.10;1.50;;;21.20;99.90;;;;;;5094308;27;20044;-57
2022/09/13 13:09:44;;;;;;;8.73;1.45;;;20.80;99.90;;;;;;5094655;27;20125;-56
2022/09/13 13:12:32;;;;;;;7.53;1.40;;;21.00;99.90;;;;;;5093730;27;20043;-56
2022/09/13 13:15:23;;;;;;;7.75;1.15;;;20.80;99.90;;;;;;5086659;27;20108;-56
2022/09/13 13:17:54;;;;;;;8.48;1.63;;;20.90;99.90;;;;;;5093582;28;20035;-56
2022/09/13 13:20:51;;;;;;;7.93;1.15;;;20.90;99.90;;;;;;5093925;27;20066;-56